createdAt,value
2023-04-08T00:00:47.883Z,42.70
2023-04-08T00:03:14.734Z,44.20
2023-04-08T00:05:41.716Z,46.65
2023-04-08T00:08:08.665Z,42.40
2023-04-08T00:10:35.472Z,43.60
2023-04-08T00:13:02.446Z,43.92
2023-04-08T00:15:29.233Z,47.60
2023-04-08T00:17:56.482Z,45.55
2023-04-08T00:20:26.915Z,51.17
2023-04-08T00:22:53.798Z,45.80
2023-04-08T00:25:22.959Z,53.05
2023-04-08T00:27:51.150Z,50.13
2023-04-08T00:30:18.290Z,52.13
2023-04-08T00:32:46.836Z,54.25
2023-04-08T00:35:15.294Z,51.13
2023-04-08T00:37:42.648Z,53.03
2023-04-08T00:40:10.068Z,53.92
2023-04-08T00:42:36.895Z,61.58
2023-04-08T00:45:04.164Z,53.92
2023-04-08T00:47:31.422Z,54.43
2023-04-08T00:49:58.526Z,49.85
2023-04-08T00:52:25.438Z,46.67
2023-04-08T00:54:52.634Z,44.13
2023-04-08T00:57:19.651Z,46.25
2023-04-08T00:59:46.514Z,43.93
2023-04-08T01:02:36.266Z,45.80
2023-04-08T01:05:23.385Z,41.53
2023-04-08T01:07:51.805Z,41.88
2023-04-08T01:10:30.167Z,46.63
2023-04-08T01:12:59.623Z,48.20
2023-04-08T01:15:28.883Z,39.92
2023-04-08T01:17:57.473Z,41.47
2023-04-08T01:20:27.795Z,41.78
2023-04-08T01:22:57.606Z,44.72
2023-04-08T01:25:32.286Z,43.53
2023-04-08T01:28:02.035Z,42.67
2023-04-08T01:30:30.693Z,46.92
2023-04-08T01:32:59.362Z,38.28
2023-04-08T01:35:27.577Z,37.42
2023-04-08T01:37:55.676Z,36.67
2023-04-08T01:40:22.836Z,36.47
2023-04-08T01:42:52.888Z,38.33
2023-04-08T01:45:20.718Z,35.08
2023-04-08T01:47:48.723Z,37.97
2023-04-08T01:50:16.711Z,35.60
2023-04-08T01:52:49.503Z,36.15
2023-04-08T01:55:17.537Z,32.70
2023-04-08T01:57:49.647Z,38.28
2023-04-08T02:00:21.309Z,42.33
2023-04-08T02:02:49.506Z,238.03
2023-04-08T02:05:16.908Z,91.22
2023-04-08T02:07:45.554Z,42.72
2023-04-08T02:10:12.796Z,170.15
2023-04-08T02:12:39.883Z,485.50
2023-04-08T02:15:10.874Z,137.80
2023-04-08T02:17:52.760Z,265.02
2023-04-08T02:20:27.044Z,203.27
2023-04-08T02:22:58.745Z,271.08
2023-04-08T02:25:27.856Z,234.88
2023-04-08T02:27:56.177Z,377.50
2023-04-08T02:30:25.850Z,67.93
2023-04-08T02:32:54.570Z,225.55
2023-04-08T02:35:22.146Z,243.90
2023-04-08T02:37:49.336Z,170.10
2023-04-08T02:40:31.242Z,317.10
2023-04-08T02:42:59.490Z,272.02
2023-04-08T02:45:39.072Z,260.90
2023-04-08T02:48:06.474Z,103.10
2023-04-08T02:50:33.489Z,259.75
2023-04-08T02:53:00.697Z,117.03
2023-04-08T02:55:28.512Z,155.38
2023-04-08T02:57:55.356Z,142.10
2023-04-08T03:00:22.193Z,121.88
2023-04-08T03:02:49.345Z,107.65
2023-04-08T03:05:16.823Z,95.23
2023-04-08T03:07:43.586Z,113.53
2023-04-08T03:10:10.834Z,97.60
2023-04-08T03:12:37.757Z,235.30
2023-04-08T03:15:04.915Z,127.90
2023-04-08T03:17:34.367Z,184.23
2023-04-08T03:20:06.784Z,129.35
2023-04-08T03:22:34.987Z,174.93
2023-04-08T03:25:01.815Z,54.58
2023-04-08T03:27:31.365Z,88.25
2023-04-08T03:29:58.792Z,183.53
2023-04-08T03:32:25.948Z,187.43
2023-04-08T03:34:53.534Z,215.50
2023-04-08T03:37:20.495Z,200.20
2023-04-08T03:39:47.339Z,200.50
2023-04-08T03:42:14.266Z,282.20
2023-04-08T03:44:41.122Z,232.18
2023-04-08T03:47:08.046Z,223.38
2023-04-08T03:49:37.892Z,46.95
2023-04-08T03:52:04.841Z,115.43
2023-04-08T03:54:31.673Z,110.83
2023-04-08T03:56:58.576Z,240.45
2023-04-08T03:59:25.972Z,61.75
2023-04-08T04:01:53.722Z,207.52
2023-04-08T04:04:21.006Z,192.45
2023-04-08T04:06:48.162Z,216.73
2023-04-08T04:09:16.743Z,135.98
2023-04-08T04:11:43.629Z,105.93
2023-04-08T04:14:10.560Z,36.78
2023-04-08T04:16:37.388Z,173.27
2023-04-08T04:19:04.230Z,134.90
2023-04-08T04:21:31.271Z,117.93
2023-04-08T04:23:58.201Z,67.15
2023-04-08T04:26:25.059Z,66.85
2023-04-08T04:28:52.066Z,308.42
2023-04-08T04:31:21.408Z,193.90
2023-04-08T04:33:49.461Z,297.35
2023-04-08T04:36:16.302Z,130.10
2023-04-08T04:38:43.664Z,230.88
2023-04-08T04:41:11.003Z,255.60
2023-04-08T04:43:38.428Z,128.90
2023-04-08T04:46:08.837Z,120.70
2023-04-08T04:48:36.163Z,145.20
2023-04-08T04:51:03.543Z,182.88
2023-04-08T04:53:33.535Z,229.02
2023-04-08T04:56:01.963Z,329.70
2023-04-08T04:58:29.774Z,218.00
2023-04-08T05:00:56.966Z,187.88
2023-04-08T05:03:23.975Z,130.60
2023-04-08T05:05:52.575Z,118.78
2023-04-08T05:08:20.023Z,89.73
2023-04-08T05:10:47.036Z,199.35
2023-04-08T05:13:13.945Z,162.70
2023-04-08T05:15:40.704Z,96.43
2023-04-08T05:18:07.696Z,50.15
2023-04-08T05:20:34.526Z,120.07
2023-04-08T05:23:01.309Z,164.85
2023-04-08T05:25:28.148Z,38.08
2023-04-08T05:27:56.127Z,114.47
2023-04-08T05:30:23.062Z,166.52
2023-04-08T05:32:49.941Z,73.33
2023-04-08T05:35:16.728Z,65.85
2023-04-08T05:37:43.527Z,138.75
2023-04-08T05:40:10.664Z,71.32
2023-04-08T05:42:37.753Z,107.85
2023-04-08T05:45:05.855Z,102.87
2023-04-08T05:47:33.430Z,113.35
2023-04-08T05:50:00.331Z,115.40
2023-04-08T05:52:27.216Z,95.57
2023-04-08T05:54:54.221Z,114.43
2023-04-08T05:57:21.147Z,126.90
2023-04-08T05:59:47.921Z,168.60
2023-04-08T06:02:14.848Z,131.73
2023-04-08T06:04:42.448Z,70.38
2023-04-08T06:07:09.546Z,78.53
2023-04-08T06:09:37.292Z,70.97
2023-04-08T06:12:04.442Z,37.63
2023-04-08T06:14:31.344Z,92.65
2023-04-08T06:16:58.276Z,88.07
2023-04-08T06:19:25.504Z,156.27
2023-04-08T06:21:52.283Z,108.97
2023-04-08T06:24:19.314Z,106.75
2023-04-08T06:26:46.082Z,157.40
2023-04-08T06:29:12.919Z,53.53
2023-04-08T06:31:39.769Z,29.67
2023-04-08T06:34:06.655Z,140.10
2023-04-08T06:36:33.464Z,145.93
2023-04-08T06:39:00.515Z,146.63
2023-04-08T06:41:27.652Z,111.45
2023-04-08T06:44:02.062Z,109.53
2023-04-08T06:46:29.235Z,38.03
2023-04-08T06:48:56.149Z,44.75
2023-04-08T06:51:23.203Z,112.35
2023-04-08T06:53:50.115Z,56.13
2023-04-08T06:56:17.049Z,51.35
2023-04-08T06:58:44.246Z,51.57
2023-04-08T07:01:11.244Z,99.88
2023-04-08T07:03:38.204Z,73.97
2023-04-08T07:06:05.280Z,72.85
2023-04-08T07:08:32.025Z,60.72
2023-04-08T07:10:58.902Z,67.20
2023-04-08T07:13:25.701Z,92.25
2023-04-08T07:15:52.758Z,75.45
2023-04-08T07:18:21.496Z,54.00
2023-04-08T07:20:53.973Z,68.45
2023-04-08T07:23:21.326Z,61.30
2023-04-08T07:25:48.345Z,39.22
2023-04-08T07:28:15.257Z,38.72
2023-04-08T07:30:42.093Z,40.05
2023-04-08T07:33:09.960Z,49.47
2023-04-08T07:35:37.137Z,34.07
2023-04-08T07:38:04.190Z,39.95
2023-04-08T07:40:31.271Z,39.00
2023-04-08T07:42:58.084Z,33.85
2023-04-08T07:45:24.979Z,34.40
2023-04-08T07:47:51.955Z,36.43
2023-04-08T07:50:18.904Z,34.47
2023-04-08T07:52:45.699Z,34.50
2023-04-08T07:55:12.532Z,38.30
2023-04-08T07:57:39.362Z,35.05
2023-04-08T08:00:07.171Z,34.37
2023-04-08T08:02:40.053Z,36.85
2023-04-08T08:05:07.850Z,38.30
2023-04-08T08:07:34.650Z,37.00
2023-04-08T08:10:01.400Z,38.28
2023-04-08T08:12:28.134Z,37.83
2023-04-08T08:14:58.950Z,38.38
2023-04-08T08:17:30.223Z,37.17
2023-04-08T08:19:57.226Z,38.70
2023-04-08T08:22:24.056Z,40.33
2023-04-08T08:24:56.449Z,37.23
2023-04-08T08:27:23.454Z,39.58
2023-04-08T08:29:50.645Z,38.80
2023-04-08T08:32:17.417Z,37.00
2023-04-08T08:34:44.428Z,41.00
2023-04-08T08:37:11.175Z,39.43
2023-04-08T08:39:38.012Z,36.80
2023-04-08T08:42:05.002Z,36.95
2023-04-08T08:44:31.768Z,33.22
2023-04-08T08:46:58.684Z,36.88
2023-04-08T08:49:30.583Z,32.87
2023-04-08T08:51:58.843Z,32.47
2023-04-08T08:54:26.236Z,33.65
2023-04-08T08:56:53.282Z,35.90
2023-04-08T08:59:20.039Z,37.83
2023-04-08T09:01:46.848Z,28.77
2023-04-08T09:04:22.640Z,32.88
2023-04-08T09:07:04.634Z,32.13
2023-04-08T09:09:49.431Z,30.65
2023-04-08T09:12:18.059Z,31.42
2023-04-08T09:14:45.108Z,27.60
2023-04-08T09:17:12.170Z,32.28
2023-04-08T09:19:38.936Z,31.63
2023-04-08T09:22:10.857Z,29.27
2023-04-08T09:24:38.451Z,29.00
2023-04-08T09:27:06.215Z,26.67
2023-04-08T09:29:35.946Z,29.13
2023-04-08T09:32:05.347Z,27.13
2023-04-08T09:34:34.272Z,25.02
2023-04-08T09:37:02.120Z,23.27
2023-04-08T09:39:28.918Z,22.80
2023-04-08T09:42:01.538Z,24.15
2023-04-08T09:44:30.592Z,19.73
2023-04-08T09:47:12.843Z,21.63
2023-04-08T09:49:53.870Z,22.48
2023-04-08T09:52:37.544Z,18.67
2023-04-08T09:55:08.760Z,15.38
2023-04-08T09:57:46.833Z,17.42
2023-04-08T10:00:18.392Z,17.48
2023-04-08T10:02:45.487Z,15.43
2023-04-08T10:05:14.961Z,14.93
2023-04-08T10:07:42.339Z,14.40
2023-04-08T10:10:12.632Z,17.30
2023-04-08T10:12:40.214Z,14.52
2023-04-08T10:15:27.665Z,14.65
2023-04-08T10:17:56.755Z,15.20
2023-04-08T10:20:42.576Z,14.38
2023-04-08T10:23:14.602Z,12.55
2023-04-08T10:25:47.683Z,13.75
2023-04-08T10:28:15.210Z,13.13
2023-04-08T10:30:55.820Z,13.80
2023-04-08T10:33:41.042Z,14.10
2023-04-08T10:36:10.038Z,12.48
2023-04-08T10:38:37.204Z,11.75
2023-04-08T10:41:05.735Z,12.30
2023-04-08T10:43:34.030Z,10.90
2023-04-08T10:46:04.079Z,12.27
2023-04-08T10:48:33.985Z,14.20
2023-04-08T10:51:05.805Z,11.73
2023-04-08T10:53:39.278Z,15.57
2023-04-08T10:56:15.318Z,10.60
2023-04-08T10:58:56.514Z,12.07
2023-04-08T11:01:23.806Z,11.32
2023-04-08T11:03:53.280Z,12.85
2023-04-08T11:06:20.794Z,10.73
2023-04-08T11:08:47.859Z,10.07
2023-04-08T11:11:15.458Z,11.40
2023-04-08T11:13:52.743Z,13.43
2023-04-08T11:16:22.696Z,12.30
2023-04-08T11:18:53.385Z,10.48
2023-04-08T11:21:22.343Z,9.37
2023-04-08T11:23:54.091Z,11.15
2023-04-08T11:26:21.567Z,8.55
2023-04-08T11:28:53.276Z,9.52
2023-04-08T11:31:24.648Z,9.30
2023-04-08T11:33:56.627Z,10.10
2023-04-08T11:36:23.645Z,11.50
2023-04-08T11:38:51.185Z,10.80
2023-04-08T11:41:19.109Z,10.25
2023-04-08T11:43:57.002Z,11.68
2023-04-08T11:46:24.690Z,10.67
2023-04-08T11:49:02.724Z,11.93
2023-04-08T11:51:29.769Z,12.88
2023-04-08T11:53:57.449Z,10.38
2023-04-08T11:56:25.644Z,11.20
2023-04-08T11:58:53.679Z,10.00
2023-04-08T12:01:21.646Z,10.70
2023-04-08T12:03:59.770Z,9.77
2023-04-08T12:06:28.113Z,9.07
2023-04-08T12:08:56.352Z,11.63
2023-04-08T12:11:23.587Z,8.83
2023-04-08T12:13:51.539Z,13.13
2023-04-08T12:16:20.134Z,9.75
2023-04-08T12:18:47.365Z,11.15
2023-04-08T12:21:14.397Z,10.13
2023-04-08T12:23:41.495Z,12.07
2023-04-08T12:26:08.432Z,10.70
2023-04-08T12:28:36.325Z,12.00
2023-04-08T12:31:03.847Z,11.18
2023-04-08T12:33:30.914Z,9.88
2023-04-08T12:36:00.820Z,11.97
2023-04-08T12:38:27.715Z,9.65
2023-04-08T12:40:56.100Z,11.63
2023-04-08T12:43:23.850Z,10.38
2023-04-08T12:45:51.788Z,10.73
2023-04-08T12:48:19.149Z,10.33
2023-04-08T12:50:46.113Z,10.95
2023-04-08T12:53:13.004Z,11.68
2023-04-08T12:55:41.234Z,11.00
2023-04-08T12:58:09.167Z,11.00
2023-04-08T13:00:40.312Z,10.00
2023-04-08T13:03:07.326Z,10.82
2023-04-08T13:05:43.241Z,11.25
2023-04-08T13:08:12.471Z,10.98
2023-04-08T13:10:39.387Z,10.70
2023-04-08T13:13:06.677Z,10.53
2023-04-08T13:15:33.582Z,9.93
2023-04-08T13:18:00.948Z,11.50
2023-04-08T13:20:28.287Z,11.15
2023-04-08T13:22:55.199Z,11.13
2023-04-08T13:25:22.117Z,12.63
2023-04-08T13:27:49.444Z,11.00
2023-04-08T13:30:16.604Z,9.80
2023-04-08T13:32:43.536Z,10.27
2023-04-08T13:35:10.842Z,10.27
2023-04-08T13:37:37.798Z,15.13
2023-04-08T13:40:06.314Z,11.70
2023-04-08T13:42:33.477Z,10.75
2023-04-08T13:45:00.884Z,12.25
2023-04-08T13:47:28.503Z,11.98
2023-04-08T13:49:55.680Z,12.00
2023-04-08T13:52:22.806Z,9.55
2023-04-08T13:54:49.707Z,11.55
2023-04-08T13:57:16.577Z,12.45
2023-04-08T13:59:44.596Z,10.05
2023-04-08T14:02:12.934Z,12.60
2023-04-08T14:04:40.351Z,13.60
2023-04-08T14:07:07.405Z,9.57
2023-04-08T14:09:34.365Z,11.88
2023-04-08T14:12:01.306Z,11.98
2023-04-08T14:14:28.163Z,10.23
2023-04-08T14:16:55.006Z,10.02
2023-04-08T14:19:21.977Z,9.98
2023-04-08T14:21:49.130Z,11.07
2023-04-08T14:24:16.209Z,8.90
2023-04-08T14:26:43.171Z,9.37
2023-04-08T14:29:10.376Z,10.93
2023-04-08T14:31:37.123Z,11.05
2023-04-08T14:34:04.858Z,9.07
2023-04-08T14:36:32.852Z,8.90
2023-04-08T14:39:02.482Z,12.10
2023-04-08T14:41:29.414Z,9.68
2023-04-08T14:43:56.178Z,9.93
2023-04-08T14:46:23.270Z,10.48
2023-04-08T14:48:50.555Z,9.45
2023-04-08T14:51:18.151Z,9.13
2023-04-08T14:53:45.010Z,9.48
2023-04-08T14:56:11.864Z,10.23
2023-04-08T14:58:38.713Z,9.45
2023-04-08T15:01:06.033Z,9.30
2023-04-08T15:03:33.549Z,10.20
2023-04-08T15:06:01.768Z,8.10
2023-04-08T15:08:28.741Z,8.07
2023-04-08T15:10:55.696Z,9.82
2023-04-08T15:13:23.026Z,10.65
2023-04-08T15:15:50.062Z,10.27
2023-04-08T15:18:17.178Z,10.02
2023-04-08T15:20:43.945Z,9.55
2023-04-08T15:23:12.033Z,8.75
2023-04-08T15:25:38.839Z,10.00
2023-04-08T15:28:05.787Z,10.33
2023-04-08T15:30:35.716Z,8.45
2023-04-08T15:33:05.706Z,9.23
2023-04-08T15:35:32.977Z,9.00
2023-04-08T15:38:02.476Z,9.43
2023-04-08T15:40:29.375Z,8.60
2023-04-08T15:42:56.521Z,7.28
2023-04-08T15:45:23.487Z,6.90
2023-04-08T15:47:50.593Z,9.57
2023-04-08T15:50:17.730Z,10.80
2023-04-08T15:52:44.739Z,8.03
2023-04-08T15:55:11.848Z,8.38
2023-04-08T15:57:38.859Z,7.72
2023-04-08T16:00:12.882Z,8.27
2023-04-08T16:02:40.986Z,7.57
2023-04-08T16:05:09.125Z,8.63
2023-04-08T16:07:36.310Z,8.55
2023-04-08T16:10:04.671Z,10.25
2023-04-08T16:12:32.757Z,8.70
2023-04-08T16:14:59.876Z,8.65
2023-04-08T16:17:28.110Z,8.03
2023-04-08T16:19:55.003Z,8.90
2023-04-08T16:22:21.965Z,8.02
2023-04-08T16:24:48.898Z,8.38
2023-04-08T16:27:16.452Z,8.05
2023-04-08T16:29:43.326Z,8.63
2023-04-08T16:32:10.218Z,8.23
2023-04-08T16:34:37.583Z,8.57
2023-04-08T16:37:06.033Z,9.75
2023-04-08T16:39:33.256Z,8.30
2023-04-08T16:42:00.602Z,10.40
2023-04-08T16:44:27.549Z,10.05
2023-04-08T16:46:54.513Z,10.45
2023-04-08T16:49:21.548Z,11.52
2023-04-08T16:51:48.975Z,10.98
2023-04-08T16:54:15.898Z,9.00
2023-04-08T16:56:45.519Z,9.70
2023-04-08T16:59:13.373Z,11.50
2023-04-08T17:01:40.402Z,13.05
2023-04-08T17:04:07.593Z,11.93
2023-04-08T17:06:35.812Z,9.43
2023-04-08T17:09:04.812Z,13.32
2023-04-08T17:11:32.254Z,10.35
2023-04-08T17:13:59.878Z,12.05
2023-04-08T17:16:26.827Z,12.88
2023-04-08T17:18:53.868Z,11.40
2023-04-08T17:21:20.836Z,16.60
2023-04-08T17:23:47.707Z,11.55
2023-04-08T17:26:14.670Z,12.93
2023-04-08T17:28:41.768Z,12.35
2023-04-08T17:31:09.780Z,11.07
2023-04-08T17:33:37.642Z,12.70
2023-04-08T17:36:05.860Z,12.75
2023-04-08T17:38:33.054Z,11.48
2023-04-08T17:41:00.028Z,10.32
2023-04-08T17:43:27.254Z,12.37
2023-04-08T17:45:54.321Z,10.13
2023-04-08T17:48:21.326Z,13.60
2023-04-08T17:50:48.106Z,9.63
2023-04-08T17:53:15.304Z,11.82
2023-04-08T17:55:42.328Z,13.13
2023-04-08T17:58:09.340Z,12.07
2023-04-08T18:00:36.342Z,11.93
2023-04-08T18:03:04.034Z,10.65
2023-04-08T18:05:32.587Z,10.60
2023-04-08T18:07:59.777Z,11.63
2023-04-08T18:10:26.856Z,11.52
2023-04-08T18:13:00.598Z,12.30
2023-04-08T18:15:37.856Z,12.20
2023-04-08T18:18:06.073Z,13.10
2023-04-08T18:20:37.213Z,13.47
2023-04-08T18:23:04.497Z,18.42
2023-04-08T18:25:32.419Z,15.40
2023-04-08T18:27:59.579Z,17.90
2023-04-08T18:30:26.911Z,14.13
2023-04-08T18:32:54.103Z,16.27
2023-04-08T18:35:21.229Z,15.68
2023-04-08T18:37:48.142Z,17.08
2023-04-08T18:40:15.447Z,16.13
2023-04-08T18:42:42.351Z,16.80
2023-04-08T18:45:09.623Z,17.50
2023-04-08T18:47:37.556Z,16.73
2023-04-08T18:50:04.757Z,17.17
2023-04-08T18:52:32.301Z,17.67
2023-04-08T18:55:02.800Z,15.60
2023-04-08T18:57:29.752Z,17.50
2023-04-08T18:59:56.804Z,19.88
2023-04-08T19:02:23.747Z,18.58
2023-04-08T19:04:50.769Z,18.05
2023-04-08T19:07:17.848Z,21.00
2023-04-08T19:09:44.751Z,16.40
2023-04-08T19:12:11.667Z,20.05
2023-04-08T19:14:39.411Z,24.67
2023-04-08T19:17:06.423Z,18.20
2023-04-08T19:19:33.312Z,18.73
2023-04-08T19:22:03.112Z,19.87
2023-04-08T19:24:29.977Z,19.50
2023-04-08T19:26:56.932Z,18.73
2023-04-08T19:29:24.524Z,20.67
2023-04-08T19:31:51.370Z,20.02
2023-04-08T19:34:18.696Z,19.47
2023-04-08T19:36:46.354Z,19.85
2023-04-08T19:39:13.320Z,24.60
2023-04-08T19:41:40.978Z,19.70
2023-04-08T19:44:08.793Z,18.77
2023-04-08T19:46:35.651Z,17.33
2023-04-08T19:49:02.781Z,19.25
2023-04-08T19:51:31.180Z,20.13
2023-04-08T19:53:58.116Z,20.25
2023-04-08T19:56:25.657Z,17.75
2023-04-08T19:58:52.881Z,18.90
2023-04-08T20:01:19.992Z,20.55
2023-04-08T20:03:51.349Z,20.00
2023-04-08T20:06:19.317Z,19.92
2023-04-08T20:08:46.442Z,20.13
2023-04-08T20:11:13.533Z,18.73
2023-04-08T20:13:40.497Z,20.08
2023-04-08T20:16:07.722Z,20.35
2023-04-08T20:18:35.673Z,21.27
2023-04-08T20:21:02.402Z,21.17
2023-04-08T20:23:29.533Z,19.50
2023-04-08T20:25:56.818Z,27.33
2023-04-08T20:28:23.870Z,34.42
2023-04-08T20:30:51.882Z,27.02
2023-04-08T20:33:19.201Z,22.92
2023-04-08T20:35:47.032Z,25.37
2023-04-08T20:38:14.663Z,20.52
2023-04-08T20:40:45.533Z,22.08
2023-04-08T20:43:15.652Z,22.05
2023-04-08T20:45:49.922Z,24.70
2023-04-08T20:48:17.889Z,23.07
2023-04-08T20:50:45.153Z,20.60
2023-04-08T20:53:12.940Z,22.27
2023-04-08T20:55:40.552Z,22.23
2023-04-08T20:58:07.904Z,22.25
2023-04-08T21:00:35.407Z,23.53
2023-04-08T21:03:02.353Z,22.50
2023-04-08T21:05:29.426Z,22.55
2023-04-08T21:07:56.590Z,20.90
2023-04-08T21:10:23.694Z,22.42
2023-04-08T21:12:50.780Z,25.20
2023-04-08T21:15:20.772Z,23.02
2023-04-08T21:17:47.721Z,23.13
2023-04-08T21:20:14.930Z,24.58
2023-04-08T21:22:41.755Z,24.50
2023-04-08T21:25:08.761Z,22.90
2023-04-08T21:27:35.664Z,24.35
2023-04-08T21:30:02.605Z,21.95
2023-04-08T21:32:30.351Z,22.25
2023-04-08T21:34:57.564Z,22.52
2023-04-08T21:37:24.682Z,22.63
2023-04-08T21:39:53.762Z,23.38
2023-04-08T21:42:22.971Z,23.30
2023-04-08T21:44:50.071Z,23.15
2023-04-08T21:47:17.655Z,23.27
2023-04-08T21:49:44.559Z,21.90
2023-04-08T21:52:12.608Z,24.73
2023-04-08T21:54:39.432Z,25.08
2023-04-08T21:57:06.480Z,23.95
2023-04-08T21:59:33.330Z,23.67
2023-04-08T22:02:00.398Z,24.47
2023-04-08T22:04:27.797Z,28.05
2023-04-08T22:06:55.150Z,29.35
2023-04-08T22:09:22.102Z,28.23
2023-04-08T22:11:49.156Z,27.70
2023-04-08T22:14:17.570Z,27.87
2023-04-08T22:16:45.083Z,29.30
2023-04-08T22:19:13.283Z,30.60
2023-04-08T22:21:41.049Z,27.83
2023-04-08T22:24:07.929Z,30.00
2023-04-08T22:26:34.785Z,31.83
2023-04-08T22:29:01.866Z,30.65
2023-04-08T22:31:28.766Z,29.98
2023-04-08T22:33:56.267Z,30.02
2023-04-08T22:36:23.258Z,32.40
2023-04-08T22:38:50.418Z,33.63
2023-04-08T22:41:22.031Z,33.20
2023-04-08T22:43:50.138Z,28.73
2023-04-08T22:46:18.608Z,30.77
2023-04-08T22:48:46.063Z,31.52
2023-04-08T22:51:13.474Z,31.03
2023-04-08T22:53:41.250Z,30.52
2023-04-08T22:56:08.204Z,31.20
2023-04-08T22:58:35.029Z,30.77
2023-04-08T23:01:03.116Z,30.00
2023-04-08T23:03:30.046Z,31.40
2023-04-08T23:05:56.887Z,34.40
2023-04-08T23:08:23.966Z,30.90
2023-04-08T23:10:50.969Z,33.10
2023-04-08T23:13:17.951Z,29.95
2023-04-08T23:15:44.784Z,32.23
2023-04-08T23:18:11.780Z,32.85
2023-04-08T23:20:38.759Z,32.50
2023-04-08T23:23:05.534Z,30.95
2023-04-08T23:25:36.209Z,32.95
2023-04-08T23:28:03.103Z,34.40
2023-04-08T23:30:29.916Z,28.85
2023-04-08T23:32:56.781Z,32.60
2023-04-08T23:35:23.732Z,32.42
2023-04-08T23:37:53.629Z,29.45
2023-04-08T23:40:20.840Z,29.60
2023-04-08T23:42:47.895Z,34.03
2023-04-08T23:45:14.912Z,29.73
2023-04-08T23:47:41.721Z,28.65
2023-04-08T23:50:09.529Z,31.23
2023-04-08T23:52:36.485Z,32.63
2023-04-08T23:55:03.556Z,32.22
2023-04-08T23:57:30.625Z,34.33
2023-04-08T23:59:57.841Z,32.67
